Time;durP1;ratioP1;P1;durP2;ratioP2;P2;SDS_P1;SDS_P2;PMS_P1;PMS_P2;Temp;Humidity;BMP_temperature;BMP_pressure;BME280_temperature;BME280_humidity;BME280_pressure;Samples;Min_cycle;Max_cycle;Signal;HPM_P1;HPM_P2
2021/04/27 00:01:21;;;;;;;11.20;7.37;;;;;;;;;;4994885;28;20487;-59
2021/04/27 00:03:48;;;;;;;9.30;6.67;;;;;;;;;;4994918;28;20939;-58
2021/04/27 00:06:15;;;;;;;9.83;7.03;;;;;;;;;;4994774;28;20534;-61
2021/04/27 00:08:41;;;;;;;10.27;6.83;;;;;;;;;;4994918;28;20455;-59
2021/04/27 00:11:08;;;;;;;10.50;6.50;;;;;;;;;;4994488;28;20475;-58
2021/04/27 00:13:34;;;;;;;9.33;6.63;;;;;;;;;;4994914;28;20458;-61
2021/04/27 00:16:01;;;;;;;10.33;7.33;;;;;;;;;;4994773;28;20455;-56
2021/04/27 00:18:27;;;;;;;10.83;6.93;;;;;;;;;;4994684;28;20498;-56
2021/04/27 00:20:55;;;;;;;12.50;6.87;;;;;;;;;;4994265;28;20483;-59
2021/04/27 00:23:22;;;;;;;9.27;6.87;;;;;;;;;;4994439;28;20944;-57
2021/04/27 00:25:48;;;;;;;11.43;6.33;;;;;;;;;;4994749;28;20458;-57
2021/04/27 00:28:15;;;;;;;8.53;6.13;;;;;;;;;;4994502;28;20513;-58
2021/04/27 00:30:41;;;;;;;10.27;6.87;;;;;;;;;;4994283;28;20502;-60
2021/04/27 00:33:08;;;;;;;8.27;6.70;;;;;;;;;;4994481;28;20451;-58
2021/04/27 00:35:35;;;;;;;8.63;6.70;;;;;;;;;;4993276;28;20947;-59
2021/04/27 00:38:02;;;;;;;10.17;6.63;;;;;;;;;;4994273;28;20461;-58
2021/04/27 00:40:31;;;;;;;11.37;7.40;;;;;;;;;;4993924;28;20484;-58
2021/04/27 00:42:58;;;;;;;13.60;7.03;;;;;;;;;;4994280;28;20485;-57
2021/04/27 00:45:26;;;;;;;10.57;6.23;;;;;;;;;;4994197;28;20458;-58
2021/04/27 00:47:54;;;;;;;11.40;7.50;;;;;;;;;;4994151;28;20462;-54
2021/04/27 00:50:22;;;;;;;9.33;6.73;;;;;;;;;;4993924;28;20455;-58
2021/04/27 00:52:48;;;;;;;10.90;6.43;;;;;;;;;;4993592;28;20469;-56
2021/04/27 00:55:17;;;;;;;9.03;6.87;;;;;;;;;;4994066;28;20922;-58
2021/04/27 00:57:43;;;;;;;10.30;6.70;;;;;;;;;;4993956;28;20556;-56
2021/04/27 01:00:13;;;;;;;10.50;6.27;;;;;;;;;;4993494;28;21016;-59
2021/04/27 01:02:39;;;;;;;8.87;6.27;;;;;;;;;;4993885;28;20469;-58
2021/04/27 01:05:07;;;;;;;11.20;7.17;;;;;;;;;;4993564;28;20485;-60
2021/04/27 01:07:35;;;;;;;11.60;7.37;;;;;;;;;;4993641;28;20961;-56
2021/04/27 01:10:04;;;;;;;11.57;6.63;;;;;;;;;;4993180;28;20832;-59
2021/04/27 01:12:33;;;;;;;9.33;6.83;;;;;;;;;;4993868;28;20504;-61
2021/04/27 01:15:03;;;;;;;12.47;6.70;;;;;;;;;;4993900;28;20462;-59
2021/04/27 01:17:29;;;;;;;8.87;6.90;;;;;;;;;;4993935;28;20473;-59
2021/04/27 01:19:58;;;;;;;10.03;7.00;;;;;;;;;;4993102;28;20490;-56
2021/04/27 01:22:29;;;;;;;11.20;6.67;;;;;;;;;;4993627;28;20471;-57
2021/04/27 01:24:57;;;;;;;10.70;7.10;;;;;;;;;;4993598;28;20450;-56
2021/04/27 01:27:25;;;;;;;12.40;6.63;;;;;;;;;;4993891;28;20515;-60
2021/04/27 01:29:52;;;;;;;10.43;6.77;;;;;;;;;;4993653;28;20453;-61
2021/04/27 01:32:18;;;;;;;10.87;7.00;;;;;;;;;;4994128;28;20952;-60
2021/04/27 01:34:46;;;;;;;9.30;6.63;;;;;;;;;;4993440;28;20948;-61
2021/04/27 01:37:14;;;;;;;9.73;6.17;;;;;;;;;;4993274;28;20818;-61
2021/04/27 01:39:41;;;;;;;9.33;6.83;;;;;;;;;;4992830;28;20484;-59
2021/04/27 01:42:08;;;;;;;11.70;6.10;;;;;;;;;;4992857;28;20485;-59
2021/04/27 01:44:36;;;;;;;11.70;7.00;;;;;;;;;;4992870;28;20465;-61
2021/04/27 01:47:04;;;;;;;10.43;7.03;;;;;;;;;;4993008;28;20498;-60
2021/04/27 01:49:31;;;;;;;10.60;6.87;;;;;;;;;;4993142;28;20514;-59
2021/04/27 01:51:58;;;;;;;8.80;6.73;;;;;;;;;;4992962;28;20477;-61
2021/04/27 01:54:24;;;;;;;12.80;6.80;;;;;;;;;;4992939;28;20831;-58
2021/04/27 01:56:51;;;;;;;10.53;6.20;;;;;;;;;;4992717;28;20508;-61
2021/04/27 01:59:17;;;;;;;10.87;6.73;;;;;;;;;;4992748;28;20457;-60
2021/04/27 02:01:45;;;;;;;9.13;6.17;;;;;;;;;;4992379;28;21045;-59
2021/04/27 02:04:11;;;;;;;12.03;6.93;;;;;;;;;;4993003;28;20455;-59
2021/04/27 02:06:38;;;;;;;10.57;6.73;;;;;;;;;;4992816;28;20452;-61
2021/04/27 02:09:06;;;;;;;11.83;7.30;;;;;;;;;;4992726;28;20881;-58
2021/04/27 02:11:34;;;;;;;13.17;7.27;;;;;;;;;;4992502;28;20463;-59
2021/04/27 02:14:01;;;;;;;12.03;6.93;;;;;;;;;;4992440;28;20819;-56
2021/04/27 02:16:28;;;;;;;10.53;6.70;;;;;;;;;;4992512;28;20935;-59
2021/04/27 02:18:56;;;;;;;11.30;7.20;;;;;;;;;;4992673;28;20460;-58
2021/04/27 02:21:23;;;;;;;11.73;6.80;;;;;;;;;;4992213;28;20492;-59
2021/04/27 02:23:50;;;;;;;10.10;6.67;;;;;;;;;;4992496;28;20507;-60
2021/04/27 02:26:18;;;;;;;11.53;7.20;;;;;;;;;;4992347;28;20450;-61
2021/04/27 02:28:45;;;;;;;10.93;6.67;;;;;;;;;;4992223;28;20458;-61
2021/04/27 02:31:12;;;;;;;8.60;6.03;;;;;;;;;;4992324;28;20468;-59
2021/04/27 02:33:40;;;;;;;8.77;6.50;;;;;;;;;;4992388;28;20474;-59
2021/04/27 02:36:07;;;;;;;9.20;6.13;;;;;;;;;;4992235;28;20975;-61
2021/04/27 02:38:34;;;;;;;12.13;6.13;;;;;;;;;;4992271;28;20448;-58
2021/04/27 02:41:00;;;;;;;10.50;6.50;;;;;;;;;;4991812;28;20487;-56
2021/04/27 02:43:27;;;;;;;9.63;5.90;;;;;;;;;;4992372;28;20963;-58
2021/04/27 02:45:54;;;;;;;14.73;6.10;;;;;;;;;;4992502;28;20443;-54
2021/04/27 02:48:23;;;;;;;10.20;6.07;;;;;;;;;;4992350;28;20454;-58
2021/04/27 02:50:50;;;;;;;9.23;6.57;;;;;;;;;;4991934;28;20478;-60
2021/04/27 02:53:18;;;;;;;12.60;7.07;;;;;;;;;;4992228;28;20454;-58
2021/04/27 02:55:45;;;;;;;8.33;6.87;;;;;;;;;;4992026;28;20451;-60
2021/04/27 02:58:12;;;;;;;9.87;6.93;;;;;;;;;;4992320;28;20478;-59
2021/04/27 03:00:38;;;;;;;10.10;7.43;;;;;;;;;;4995585;28;20491;-59
2021/04/27 03:03:05;;;;;;;11.80;7.50;;;;;;;;;;4995949;28;20470;-60
2021/04/27 03:05:31;;;;;;;11.23;7.27;;;;;;;;;;4996061;28;20475;-59
2021/04/27 03:07:58;;;;;;;11.43;7.33;;;;;;;;;;4995884;28;20454;-60
2021/04/27 03:10:25;;;;;;;11.33;6.97;;;;;;;;;;4996073;28;20447;-58
2021/04/27 03:12:52;;;;;;;8.47;6.30;;;;;;;;;;4995950;28;20834;-59
2021/04/27 03:15:19;;;;;;;10.13;7.77;;;;;;;;;;4995880;28;20481;-59
2021/04/27 03:17:46;;;;;;;12.53;7.23;;;;;;;;;;4995777;28;20467;-58
2021/04/27 03:20:13;;;;;;;10.23;7.53;;;;;;;;;;4995398;28;20485;-58
2021/04/27 03:22:40;;;;;;;13.00;7.40;;;;;;;;;;4995411;28;20466;-60
2021/04/27 03:25:07;;;;;;;10.63;7.10;;;;;;;;;;4995761;28;20450;-57
2021/04/27 03:27:35;;;;;;;8.50;6.60;;;;;;;;;;4995774;28;20524;-56
2021/04/27 03:30:02;;;;;;;11.20;7.17;;;;;;;;;;4995472;28;20517;-58
2021/04/27 03:32:28;;;;;;;10.60;7.33;;;;;;;;;;4995437;28;20471;-58
2021/04/27 03:34:55;;;;;;;10.50;7.30;;;;;;;;;;4995430;28;20827;-58
2021/04/27 03:37:21;;;;;;;10.57;6.80;;;;;;;;;;4995166;28;20455;-59
2021/04/27 03:39:48;;;;;;;9.33;6.63;;;;;;;;;;4995310;28;20505;-61
2021/04/27 03:42:14;;;;;;;11.70;6.80;;;;;;;;;;4995300;28;20485;-59
2021/04/27 03:44:42;;;;;;;13.93;7.13;;;;;;;;;;4995303;28;20458;-56
2021/04/27 03:47:08;;;;;;;9.70;6.73;;;;;;;;;;4995159;28;20447;-58
2021/04/27 03:49:35;;;;;;;9.17;6.43;;;;;;;;;;4995081;28;20451;-56
2021/04/27 03:52:02;;;;;;;9.20;6.47;;;;;;;;;;4994876;28;20475;-56
2021/04/27 03:54:28;;;;;;;9.77;6.70;;;;;;;;;;4995204;28;20451;-60
2021/04/27 03:56:55;;;;;;;10.37;6.40;;;;;;;;;;4995077;28;20447;-56
2021/04/27 03:59:21;;;;;;;8.90;6.13;;;;;;;;;;4995053;28;20514;-57
2021/04/27 04:01:49;;;;;;;6.97;5.67;;;;;;;;;;4994695;28;20497;-58
2021/04/27 04:04:15;;;;;;;12.87;6.43;;;;;;;;;;4993433;28;20455;-57
2021/04/27 04:06:42;;;;;;;12.50;6.33;;;;;;;;;;4994341;28;20491;-58
2021/04/27 04:09:09;;;;;;;10.10;6.20;;;;;;;;;;4993972;28;20513;-60
2021/04/27 04:11:36;;;;;;;10.87;6.60;;;;;;;;;;4993379;28;20470;-56
2021/04/27 04:14:03;;;;;;;9.20;5.97;;;;;;;;;;4994887;28;20459;-59
2021/04/27 04:16:29;;;;;;;7.37;5.87;;;;;;;;;;4994594;28;20443;-57
2021/04/27 04:18:57;;;;;;;10.23;5.83;;;;;;;;;;4994390;28;20455;-59
2021/04/27 04:21:24;;;;;;;11.27;6.13;;;;;;;;;;4994398;28;20502;-60
2021/04/27 04:23:50;;;;;;;11.03;6.37;;;;;;;;;;4994759;28;20463;-59
2021/04/27 04:26:17;;;;;;;9.70;6.07;;;;;;;;;;4990639;28;20455;-58
2021/04/27 04:28:43;;;;;;;9.20;5.93;;;;;;;;;;4992893;28;20455;-59
2021/04/27 04:31:10;;;;;;;8.67;5.00;;;;;;;;;;4977822;28;20557;-56
2021/04/27 04:33:36;;;;;;;9.57;5.23;;;;;;;;;;4993696;28;20451;-57
2021/04/27 04:36:04;;;;;;;8.13;5.47;;;;;;;;;;4994302;28;20474;-59
2021/04/27 04:38:31;;;;;;;7.17;5.37;;;;;;;;;;4994120;28;21194;-59
2021/04/27 04:40:58;;;;;;;6.50;4.80;;;;;;;;;;4993792;28;20541;-60
2021/04/27 04:43:24;;;;;;;7.50;5.37;;;;;;;;;;4994048;28;20462;-55
2021/04/27 04:45:51;;;;;;;9.83;5.30;;;;;;;;;;4994058;28;20454;-58
2021/04/27 04:48:17;;;;;;;8.17;5.47;;;;;;;;;;4993923;28;20932;-60
2021/04/27 04:50:44;;;;;;;10.37;5.20;;;;;;;;;;4993573;28;20947;-56
2021/04/27 04:53:12;;;;;;;8.67;4.93;;;;;;;;;;4993767;28;20474;-58
2021/04/27 04:55:38;;;;;;;8.40;5.07;;;;;;;;;;4993651;28;20523;-58
2021/04/27 04:58:05;;;;;;;9.10;5.27;;;;;;;;;;4993647;28;20456;-59
2021/04/27 05:00:32;;;;;;;9.03;5.23;;;;;;;;;;4993264;28;20553;-60
2021/04/27 05:02:58;;;;;;;8.40;5.10;;;;;;;;;;4993772;28;20486;-59
2021/04/27 05:05:26;;;;;;;8.00;4.80;;;;;;;;;;4993826;28;20455;-60
2021/04/27 05:07:59;;;;;;;7.33;5.20;;;;;;;;;;4993707;28;20451;-61
2021/04/27 05:10:26;;;;;;;9.03;5.20;;;;;;;;;;4993506;28;20490;-59
2021/04/27 05:12:53;;;;;;;11.30;4.93;;;;;;;;;;4993399;28;20475;-59
2021/04/27 05:15:20;;;;;;;7.37;5.20;;;;;;;;;;4993361;28;20455;-59
2021/04/27 05:17:47;;;;;;;11.77;4.87;;;;;;;;;;4993681;28;20451;-61
2021/04/27 05:20:13;;;;;;;11.43;4.83;;;;;;;;;;4993377;28;20491;-59
2021/04/27 05:22:40;;;;;;;7.83;4.80;;;;;;;;;;4982291;28;20479;-67
2021/04/27 05:25:07;;;;;;;10.83;4.63;;;;;;;;;;4973325;28;20453;-63
2021/04/27 05:27:34;;;;;;;7.47;4.40;;;;;;;;;;4973551;28;20456;-63
2021/04/27 05:30:02;;;;;;;6.33;4.40;;;;;;;;;;4973276;28;20525;-61
2021/04/27 05:32:29;;;;;;;8.43;4.70;;;;;;;;;;4973278;28;20477;-61
2021/04/27 05:34:56;;;;;;;8.33;4.30;;;;;;;;;;4981913;28;20979;-62
2021/04/27 05:37:22;;;;;;;9.07;5.37;;;;;;;;;;4992869;28;20466;-63
2021/04/27 05:39:49;;;;;;;8.27;4.50;;;;;;;;;;4992626;28;20459;-63
2021/04/27 05:42:15;;;;;;;5.23;4.00;;;;;;;;;;4992110;28;20535;-63
2021/04/27 05:44:43;;;;;;;8.97;4.23;;;;;;;;;;4992070;28;20457;-59
2021/04/27 05:47:10;;;;;;;11.57;4.70;;;;;;;;;;4992383;28;20949;-62
2021/04/27 05:49:36;;;;;;;10.50;4.37;;;;;;;;;;4993323;28;20454;-62
2021/04/27 05:52:03;;;;;;;7.80;4.43;;;;;;;;;;4993629;28;20465;-62
2021/04/27 05:54:30;;;;;;;6.13;4.13;;;;;;;;;;4992484;28;20453;-63
2021/04/27 05:56:56;;;;;;;6.80;4.17;;;;;;;;;;4992134;28;20466;-63
2021/04/27 05:59:23;;;;;;;10.17;4.50;;;;;;;;;;4992518;28;20977;-60
2021/04/27 06:01:50;;;;;;;7.73;4.30;;;;;;;;;;4992298;28;20500;-62
2021/04/27 06:04:17;;;;;;;6.63;4.17;;;;;;;;;;4992778;28;20457;-62
2021/04/27 06:06:43;;;;;;;7.97;4.50;;;;;;;;;;4993638;28;20868;-62
2021/04/27 06:09:10;;;;;;;11.47;4.50;;;;;;;;;;4993661;28;20461;-63
2021/04/27 06:11:37;;;;;;;7.97;4.10;;;;;;;;;;4991998;28;20532;-61
2021/04/27 06:14:04;;;;;;;5.07;3.50;;;;;;;;;;4992033;28;20464;-63
2021/04/27 06:16:30;;;;;;;6.70;3.50;;;;;;;;;;4992146;28;20955;-63
2021/04/27 06:18:58;;;;;;;6.53;4.57;;;;;;;;;;4992369;28;20466;-66
2021/04/27 06:21:24;;;;;;;9.87;4.30;;;;;;;;;;4991774;28;20497;-63
2021/04/27 06:23:51;;;;;;;5.83;3.93;;;;;;;;;;4991437;28;20462;-59
2021/04/27 06:26:18;;;;;;;6.67;3.80;;;;;;;;;;4991481;28;20455;-60
2021/04/27 06:28:45;;;;;;;5.90;3.97;;;;;;;;;;4992129;28;20827;-63
2021/04/27 06:31:11;;;;;;;6.17;4.17;;;;;;;;;;4992029;28;20463;-61
2021/04/27 06:33:38;;;;;;;4.73;3.33;;;;;;;;;;4992219;28;20459;-64
2021/04/27 06:36:06;;;;;;;6.27;4.03;;;;;;;;;;4996003;28;20771;-67
2021/04/27 06:38:33;;;;;;;5.53;3.63;;;;;;;;;;4985550;28;20474;-66
2021/04/27 06:41:00;;;;;;;6.27;3.73;;;;;;;;;;4976475;28;20487;-65
2021/04/27 06:43:26;;;;;;;19.50;6.53;;;;;;;;;;4976664;28;20452;-64
2021/04/27 06:45:53;;;;;;;4.90;3.67;;;;;;;;;;4976657;28;20513;-64
2021/04/27 06:48:20;;;;;;;8.60;3.83;;;;;;;;;;4976671;28;20458;-64
2021/04/27 06:50:47;;;;;;;6.60;3.90;;;;;;;;;;4976220;28;20482;-64
2021/04/27 06:53:14;;;;;;;7.93;3.57;;;;;;;;;;4976055;28;20677;-60
2021/04/27 06:55:40;;;;;;;7.97;3.20;;;;;;;;;;4976541;28;20208;-62
2021/04/27 06:58:08;;;;;;;7.33;3.57;;;;;;;;;;4992071;28;20682;-65
2021/04/27 07:00:36;;;;;;;3.67;2.73;;;;;;;;;;4995606;28;20228;-63
2021/04/27 07:03:03;;;;;;;7.50;2.80;;;;;;;;;;4995784;28;20247;-63
2021/04/27 07:05:29;;;;;;;9.47;3.20;;;;;;;;;;4995288;28;20208;-63
2021/04/27 07:07:57;;;;;;;7.90;3.67;;;;;;;;;;4995500;28;20236;-63
2021/04/27 07:10:25;;;;;;;7.93;3.40;;;;;;;;;;4994914;28;20208;-62
2021/04/27 07:12:51;;;;;;;6.40;3.40;;;;;;;;;;4995290;28;20233;-63
2021/04/27 07:15:18;;;;;;;5.43;2.93;;;;;;;;;;4995378;28;20214;-62
2021/04/27 07:17:45;;;;;;;4.80;2.90;;;;;;;;;;4994866;28;20214;-62
2021/04/27 07:20:13;;;;;;;6.23;3.47;;;;;;;;;;4994665;28;20240;-63
2021/04/27 07:22:39;;;;;;;4.07;2.70;;;;;;;;;;4994434;28;20237;-63
2021/04/27 07:25:06;;;;;;;4.70;2.40;;;;;;;;;;4995344;28;20218;-61
2021/04/27 07:27:34;;;;;;;5.40;2.73;;;;;;;;;;4995191;28;20313;-63
2021/04/27 07:30:00;;;;;;;4.43;3.13;;;;;;;;;;4994697;28;20210;-63
2021/04/27 07:32:27;;;;;;;5.20;2.33;;;;;;;;;;5095324;23;20224;-63
2021/04/27 07:34:53;;;;;;;6.43;2.47;;;;;;;;;;4975732;28;20217;-63
2021/04/27 07:37:20;;;;;;;3.73;2.47;;;;;;;;;;4976224;28;20211;-63
2021/04/27 07:39:47;;;;;;;5.10;2.37;;;;;;;;;;4975780;28;20277;-61
2021/04/27 07:42:13;;;;;;;4.83;2.67;;;;;;;;;;4975358;28;20248;-64
2021/04/27 07:44:40;;;;;;;7.13;2.90;;;;;;;;;;4975229;28;20234;-66
2021/04/27 07:47:07;;;;;;;3.20;2.40;;;;;;;;;;4975346;28;20207;-66
2021/04/27 07:49:33;;;;;;;7.73;2.70;;;;;;;;;;4975456;28;20216;-65
2021/04/27 07:52:00;;;;;;;6.03;2.30;;;;;;;;;;4975186;28;20250;-66
2021/04/27 07:54:27;;;;;;;2.87;2.00;;;;;;;;;;4975382;28;20212;-65
2021/04/27 07:56:53;;;;;;;3.07;2.07;;;;;;;;;;4975175;28;20221;-63
2021/04/27 07:59:20;;;;;;;7.07;2.60;;;;;;;;;;4975188;28;20700;-61
2021/04/27 08:01:47;;;;;;;5.13;2.50;;;;;;;;;;4974692;28;20280;-62
2021/04/27 08:04:14;;;;;;;3.97;2.37;;;;;;;;;;4975088;28;20208;-61
2021/04/27 08:06:41;;;;;;;5.73;2.20;;;;;;;;;;4975198;28;20212;-59
2021/04/27 08:09:08;;;;;;;6.97;2.50;;;;;;;;;;4975442;28;20208;-59
2021/04/27 08:11:35;;;;;;;4.03;2.23;;;;;;;;;;4974925;28;20229;-67
2021/04/27 08:14:01;;;;;;;5.17;2.53;;;;;;;;;;4975038;28;20204;-66
2021/04/27 08:16:28;;;;;;;3.27;2.27;;;;;;;;;;4974820;28;20216;-60
2021/04/27 08:18:55;;;;;;;3.87;2.20;;;;;;;;;;4975275;28;20209;-62
2021/04/27 08:21:23;;;;;;;7.47;3.40;;;;;;;;;;4955797;28;20234;-62
2021/04/27 08:23:50;;;;;;;7.93;2.83;;;;;;;;;;4955331;29;20220;-64
2021/04/27 08:26:16;;;;;;;5.00;2.50;;;;;;;;;;4955616;29;20209;-65
2021/04/27 08:28:43;;;;;;;7.20;2.27;;;;;;;;;;4955403;29;20218;-63
2021/04/27 08:31:10;;;;;;;5.87;2.30;;;;;;;;;;4963746;28;20285;-63
2021/04/27 08:33:37;;;;;;;4.17;2.63;;;;;;;;;;4974328;28;20839;-61
2021/04/27 08:36:05;;;;;;;56.37;9.03;;;;;;;;;;4974602;28;20241;-61
2021/04/27 08:38:32;;;;;;;4.13;1.87;;;;;;;;;;4974415;28;20212;-61
2021/04/27 08:40:59;;;;;;;3.13;2.20;;;;;;;;;;4974208;28;20236;-62
2021/04/27 08:43:25;;;;;;;3.80;2.40;;;;;;;;;;4973945;28;20242;-62
2021/04/27 08:45:52;;;;;;;3.23;2.40;;;;;;;;;;4974276;28;20719;-62
2021/04/27 08:48:19;;;;;;;5.07;2.73;;;;;;;;;;4974330;28;20696;-64
2021/04/27 08:50:46;;;;;;;14.30;8.47;;;;;;;;;;4973252;28;20209;-63
2021/04/27 08:53:13;;;;;;;5.73;2.70;;;;;;;;;;4973488;28;20692;-63
2021/04/27 08:55:41;;;;;;;10.30;5.77;;;;;;;;;;4955546;28;20229;-59
2021/04/27 08:58:08;;;;;;;4.13;2.40;;;;;;;;;;4954308;28;20249;-61
2021/04/27 09:00:35;;;;;;;2.83;2.53;;;;;;;;;;4954946;29;20229;-61
2021/04/27 09:03:03;;;;;;;4.07;2.50;;;;;;;;;;4954713;29;20230;-67
2021/04/27 09:05:30;;;;;;;3.57;2.60;;;;;;;;;;4954680;29;20210;-60
2021/04/27 09:07:57;;;;;;;4.43;2.20;;;;;;;;;;4954632;29;20234;-65
2021/04/27 09:10:26;;;;;;;3.60;2.40;;;;;;;;;;4954439;29;20220;-67
2021/04/27 09:12:54;;;;;;;6.73;2.63;;;;;;;;;;4954113;29;20582;-65
2021/04/27 09:15:30;;;;;;;2.30;2.00;;;;;;;;;;4954699;29;20231;-64
2021/04/27 09:17:57;;;;;;;4.57;2.50;;;;;;;;;;4954424;29;20212;-65
2021/04/27 09:20:23;;;;;;;3.77;2.33;;;;;;;;;;4954191;29;20215;-65
2021/04/27 09:22:50;;;;;;;2.70;2.50;;;;;;;;;;4954252;29;20227;-66
2021/04/27 09:25:22;;;;;;;3.63;2.47;;;;;;;;;;4953884;28;20215;-64
2021/04/27 09:27:50;;;;;;;3.93;2.77;;;;;;;;;;4953340;29;20273;-65
2021/04/27 09:30:22;;;;;;;15.03;6.53;;;;;;;;;;4953028;29;20218;-64
2021/04/27 09:32:53;;;;;;;2.97;2.40;;;;;;;;;;4953663;28;20243;-63
2021/04/27 09:35:33;;;;;;;4.97;2.83;;;;;;;;;;4953226;29;20292;-63
2021/04/27 09:38:10;;;;;;;3.17;2.40;;;;;;;;;;4953086;29;20222;-63
2021/04/27 09:40:44;;;;;;;4.23;2.60;;;;;;;;;;4953032;29;20226;-65
2021/04/27 09:43:12;;;;;;;4.17;2.40;;;;;;;;;;4953020;29;20236;-67
2021/04/27 09:45:39;;;;;;;5.50;2.53;;;;;;;;;;4953158;29;20208;-63
2021/04/27 09:48:06;;;;;;;3.93;2.73;;;;;;;;;;4953043;29;20207;-61
2021/04/27 09:50:33;;;;;;;4.03;2.83;;;;;;;;;;4953067;29;20705;-63
2021/04/27 09:53:01;;;;;;;5.37;3.93;;;;;;;;;;4953013;29;20231;-61
2021/04/27 09:55:30;;;;;;;4.80;3.50;;;;;;;;;;4953067;29;20212;-61
2021/04/27 09:57:57;;;;;;;3.67;2.90;;;;;;;;;;4953281;29;20258;-64
2021/04/27 10:00:27;;;;;;;6.67;2.73;;;;;;;;;;4952739;29;20239;-65
2021/04/27 10:02:55;;;;;;;5.47;2.80;;;;;;;;;;4953033;29;20232;-60
2021/04/27 10:05:21;;;;;;;5.40;2.73;;;;;;;;;;4953099;29;20212;-59
2021/04/27 10:07:48;;;;;;;3.57;2.50;;;;;;;;;;4953027;28;20212;-57
2021/04/27 10:10:16;;;;;;;8.13;3.33;;;;;;;;;;4952905;29;20218;-62
2021/04/27 10:12:43;;;;;;;4.20;2.90;;;;;;;;;;4952483;29;20232;-62
2021/04/27 10:15:10;;;;;;;3.27;2.30;;;;;;;;;;4952617;29;20677;-62
2021/04/27 10:17:38;;;;;;;8.60;2.70;;;;;;;;;;4952974;29;20220;-65
2021/04/27 10:20:06;;;;;;;4.00;2.67;;;;;;;;;;4952733;29;20216;-63
2021/04/27 10:22:33;;;;;;;5.43;2.87;;;;;;;;;;4952479;29;20240;-63
2021/04/27 10:24:59;;;;;;;4.57;2.63;;;;;;;;;;4952729;29;20205;-64
2021/04/27 10:27:27;;;;;;;4.27;2.77;;;;;;;;;;4952695;29;20216;-64
2021/04/27 10:29:57;;;;;;;5.23;3.20;;;;;;;;;;4952313;29;20213;-60
2021/04/27 10:32:24;;;;;;;3.67;2.80;;;;;;;;;;4934769;29;522528;-62
2021/04/27 10:35:08;;;;;;;4.67;2.70;;;;;;;;;;4954481;29;20213;-59
2021/04/27 10:37:50;;;;;;;4.40;2.80;;;;;;;;;;4953704;29;20620;-62
2021/04/27 10:40:41;;;;;;;5.40;2.67;;;;;;;;;;4953210;29;20677;-61
2021/04/27 10:43:23;;;;;;;4.40;3.00;;;;;;;;;;4953433;29;20229;-62
2021/04/27 10:45:49;;;;;;;5.00;2.97;;;;;;;;;;4953421;28;20267;-61
2021/04/27 10:48:25;;;;;;;4.43;2.60;;;;;;;;;;4953276;29;20209;-64
2021/04/27 10:50:52;;;;;;;5.03;2.60;;;;;;;;;;4953382;29;20616;-61
2021/04/27 10:53:30;;;;;;;8.23;3.37;;;;;;;;;;4953815;29;20209;-62
2021/04/27 10:55:57;;;;;;;4.50;3.07;;;;;;;;;;4953897;29;20219;-64
2021/04/27 10:58:38;;;;;;;4.03;3.20;;;;;;;;;;4954787;29;20564;-63
2021/04/27 11:01:17;;;;;;;6.00;3.53;;;;;;;;;;4952854;28;20255;-66
2021/04/27 11:03:48;;;;;;;4.93;2.70;;;;;;;;;;4961135;29;20237;-64
2021/04/27 11:06:16;;;;;;;6.57;3.00;;;;;;;;;;4959581;29;20236;-63
2021/04/27 11:08:43;;;;;;;3.70;3.13;;;;;;;;;;4958057;29;20220;-64
2021/04/27 11:11:16;;;;;;;4.73;3.20;;;;;;;;;;4957036;29;20229;-66
2021/04/27 11:13:43;;;;;;;4.37;2.63;;;;;;;;;;4955102;29;20823;-64
2021/04/27 11:16:23;;;;;;;6.77;3.53;;;;;;;;;;4953984;29;20216;-60
2021/04/27 11:18:49;;;;;;;14.53;7.90;;;;;;;;;;4953384;29;20216;-61
2021/04/27 11:21:17;;;;;;;7.30;2.93;;;;;;;;;;4955589;28;20240;-60
2021/04/27 11:23:45;;;;;;;3.87;3.07;;;;;;;;;;4956409;29;20209;-63
2021/04/27 11:26:31;;;;;;;5.37;3.17;;;;;;;;;;4956963;29;20336;-64
2021/04/27 11:28:58;;;;;;;5.47;3.83;;;;;;;;;;4956885;29;20227;-65
2021/04/27 11:31:25;;;;;;;8.50;3.30;;;;;;;;;;4956642;29;20229;-65
2021/04/27 11:33:56;;;;;;;5.67;3.27;;;;;;;;;;4956552;29;20619;-63
2021/04/27 11:36:36;;;;;;;8.10;3.40;;;;;;;;;;4956330;29;20220;-64
2021/04/27 11:39:09;;;;;;;5.60;2.73;;;;;;;;;;4956482;28;20225;-64
2021/04/27 11:41:46;;;;;;;4.90;3.17;;;;;;;;;;4956199;29;20233;-65
2021/04/27 11:44:13;;;;;;;14.67;4.13;;;;;;;;;;4955997;29;20264;-64
2021/04/27 11:46:59;;;;;;;5.90;3.17;;;;;;;;;;4971970;28;20212;-64
2021/04/27 11:49:44;;;;;;;6.27;3.13;;;;;;;;;;4975674;28;20289;-65
2021/04/27 11:52:12;;;;;;;6.13;3.67;;;;;;;;;;4975359;28;20227;-65
2021/04/27 11:54:38;;;;;;;8.53;4.80;;;;;;;;;;4975440;28;20220;-64
2021/04/27 11:57:05;;;;;;;4.63;3.03;;;;;;;;;;4975571;28;20212;-63
2021/04/27 11:59:32;;;;;;;6.60;3.00;;;;;;;;;;4975151;28;20223;-64
2021/04/27 12:02:01;;;;;;;4.07;3.23;;;;;;;;;;4975033;28;20280;-65
2021/04/27 12:04:28;;;;;;;8.63;3.37;;;;;;;;;;4974203;28;20822;-53
2021/04/27 12:07:01;;;;;;;5.57;2.53;;;;;;;;;;4975521;28;20656;-54
2021/04/27 12:09:28;;;;;;;4.27;2.67;;;;;;;;;;4975576;28;20208;-58
2021/04/27 12:12:08;;;;;;;5.90;2.80;;;;;;;;;;4974927;28;20574;-54
2021/04/27 12:14:34;;;;;;;5.93;3.20;;;;;;;;;;4975376;28;20211;-51
2021/04/27 12:17:01;;;;;;;3.57;2.43;;;;;;;;;;4975431;28;20628;-56
2021/04/27 12:19:27;;;;;;;4.33;3.07;;;;;;;;;;4974600;28;20209;-54
2021/04/27 12:21:55;;;;;;;9.10;3.43;;;;;;;;;;4974626;28;20775;-56
2021/04/27 12:24:22;;;;;;;3.90;3.00;;;;;;;;;;4975030;28;20259;-54
2021/04/27 12:27:00;;;;;;;4.17;2.90;;;;;;;;;;4975292;28;20227;-55
2021/04/27 12:29:27;;;;;;;3.30;2.63;;;;;;;;;;4975381;28;20208;-53
2021/04/27 12:31:54;;;;;;;6.93;3.30;;;;;;;;;;4973599;28;20225;-57
2021/04/27 12:34:21;;;;;;;4.00;2.80;;;;;;;;;;4974909;28;20217;-59
2021/04/27 12:36:49;;;;;;;5.30;3.00;;;;;;;;;;4974665;28;20219;-56
2021/04/27 12:39:26;;;;;;;7.07;3.03;;;;;;;;;;4975094;28;20212;-57
2021/04/27 12:41:53;;;;;;;4.97;2.67;;;;;;;;;;4974420;28;20806;-54
2021/04/27 12:44:31;;;;;;;6.87;3.47;;;;;;;;;;4974706;28;20231;-57
2021/04/27 12:46:59;;;;;;;7.67;3.20;;;;;;;;;;4974451;28;20204;-59
2021/04/27 12:49:26;;;;;;;63.27;7.67;;;;;;;;;;4974449;28;20204;-56
2021/04/27 12:51:59;;;;;;;6.43;2.87;;;;;;;;;;4974468;28;20381;-56
2021/04/27 12:54:30;;;;;;;3.80;2.70;;;;;;;;;;4974568;28;20204;-52
2021/04/27 12:57:07;;;;;;;4.67;2.67;;;;;;;;;;4974851;28;20585;-56
2021/04/27 12:59:35;;;;;;;5.80;3.00;;;;;;;;;;4974444;28;20673;-53
2021/04/27 13:02:05;;;;;;;4.83;3.13;;;;;;;;;;4973963;28;20252;-56
2021/04/27 13:04:31;;;;;;;8.03;3.00;;;;;;;;;;4974497;28;20598;-55
2021/04/27 13:06:58;;;;;;;3.87;2.67;;;;;;;;;;4974548;28;20259;-52
2021/04/27 13:09:27;;;;;;;5.37;2.83;;;;;;;;;;4974473;28;20209;-54
2021/04/27 13:11:58;;;;;;;4.77;3.30;;;;;;;;;;4973906;28;20313;-55
2021/04/27 13:14:31;;;;;;;3.67;2.83;;;;;;;;;;4974050;28;20259;-55
2021/04/27 13:16:58;;;;;;;6.40;3.63;;;;;;;;;;4974451;28;20217;-51
2021/04/27 13:19:26;;;;;;;6.63;3.30;;;;;;;;;;4974159;28;20215;-52
2021/04/27 13:22:08;;;;;;;5.97;3.20;;;;;;;;;;4973784;28;20631;-52
2021/04/27 13:24:39;;;;;;;7.13;3.10;;;;;;;;;;4973963;28;20303;-57
2021/04/27 13:27:06;;;;;;;5.37;3.00;;;;;;;;;;4974141;28;20271;-51
2021/04/27 13:29:33;;;;;;;5.53;2.80;;;;;;;;;;4974043;28;20213;-54
2021/04/27 13:32:12;;;;;;;5.43;3.20;;;;;;;;;;4968128;28;20232;-63
2021/04/27 13:34:38;;;;;;;3.70;3.10;;;;;;;;;;4964428;28;20830;-65
2021/04/27 13:37:05;;;;;;;4.87;3.20;;;;;;;;;;4973285;28;20678;-65
2021/04/27 13:39:32;;;;;;;5.50;3.17;;;;;;;;;;4973317;28;20677;-62
2021/04/27 13:41:59;;;;;;;4.60;3.60;;;;;;;;;;4973017;28;20241;-64
2021/04/27 13:44:25;;;;;;;3.50;3.03;;;;;;;;;;4972856;28;20209;-64
2021/04/27 13:46:52;;;;;;;5.20;3.30;;;;;;;;;;4973151;28;20624;-58
2021/04/27 13:49:19;;;;;;;6.53;3.63;;;;;;;;;;4972912;28;20217;-63
2021/04/27 13:51:45;;;;;;;5.43;2.90;;;;;;;;;;4972826;28;20226;-63
2021/04/27 13:54:12;;;;;;;6.33;3.73;;;;;;;;;;4973595;28;20218;-65
2021/04/27 13:56:38;;;;;;;4.80;2.97;;;;;;;;;;4972375;28;20210;-66
2021/04/27 13:59:05;;;;;;;5.77;2.97;;;;;;;;;;4972783;28;20213;-64
2021/04/27 14:01:33;;;;;;;7.77;3.23;;;;;;;;;;4972329;28;20233;-64
2021/04/27 14:04:00;;;;;;;7.93;3.57;;;;;;;;;;4972987;28;20214;-63
2021/04/27 14:06:27;;;;;;;5.07;3.00;;;;;;;;;;4972656;28;20205;-66
2021/04/27 14:08:54;;;;;;;4.90;3.47;;;;;;;;;;4973412;28;20209;-66
2021/04/27 14:11:20;;;;;;;7.40;3.00;;;;;;;;;;4972583;28;20222;-65
2021/04/27 14:13:47;;;;;;;5.03;3.53;;;;;;;;;;4973280;28;20217;-65
2021/04/27 14:16:13;;;;;;;4.73;3.40;;;;;;;;;;4973044;28;20212;-64
2021/04/27 14:18:40;;;;;;;6.80;2.97;;;;;;;;;;4973171;28;20221;-63
2021/04/27 14:21:07;;;;;;;6.67;3.23;;;;;;;;;;4972324;28;20249;-63
2021/04/27 14:23:34;;;;;;;4.73;3.17;;;;;;;;;;4972920;28;20215;-61
2021/04/27 14:26:01;;;;;;;6.20;3.23;;;;;;;;;;4972986;28;20215;-62
2021/04/27 14:28:27;;;;;;;4.07;3.30;;;;;;;;;;4973001;28;20219;-63
2021/04/27 14:30:54;;;;;;;4.20;2.80;;;;;;;;;;4972378;28;20218;-64
2021/04/27 14:33:20;;;;;;;5.87;3.50;;;;;;;;;;4972537;28;20213;-64
2021/04/27 14:35:48;;;;;;;5.27;3.33;;;;;;;;;;4972997;28;20554;-64
2021/04/27 14:38:15;;;;;;;4.23;3.20;;;;;;;;;;4972946;28;20236;-63
2021/04/27 14:40:42;;;;;;;6.40;3.30;;;;;;;;;;4972746;28;20216;-64
2021/04/27 14:43:10;;;;;;;9.50;3.83;;;;;;;;;;4972544;28;20233;-61
2021/04/27 14:45:37;;;;;;;3.53;3.20;;;;;;;;;;4973030;28;20208;-64